sensor_id;sensor_type;location;lat;lon;timestamp;P1;durP1;ratioP1;P2;durP2;ratioP2
68923;SDS011;55961;52.156;20.942;2022-08-07T00:01:18;4.27;;;1.63;;
68923;SDS011;55961;52.156;20.942;2022-08-07T00:03:44;3.75;;;1.55;;
68923;SDS011;55961;52.156;20.942;2022-08-07T00:06:11;5.55;;;1.60;;
68923;SDS011;55961;52.156;20.942;2022-08-07T00:08:38;5.93;;;1.73;;
68923;SDS011;55961;52.156;20.942;2022-08-07T00:11:04;3.90;;;1.50;;
68923;SDS011;55961;52.156;20.942;2022-08-07T00:13:30;6.17;;;1.53;;
68923;SDS011;55961;52.156;20.942;2022-08-07T00:15:57;6.15;;;1.60;;
68923;SDS011;55961;52.156;20.942;2022-08-07T00:18:24;4.95;;;1.63;;
68923;SDS011;55961;52.156;20.942;2022-08-07T00:20:56;5.22;;;1.70;;
68923;SDS011;55961;52.156;20.942;2022-08-07T00:23:23;5.28;;;1.75;;
68923;SDS011;55961;52.156;20.942;2022-08-07T00:25:49;10.60;;;2.37;;
68923;SDS011;55961;52.156;20.942;2022-08-07T00:28:15;7.28;;;2.08;;
68923;SDS011;55961;52.156;20.942;2022-08-07T00:30:42;9.85;;;2.85;;
68923;SDS011;55961;52.156;20.942;2022-08-07T00:33:07;6.25;;;1.92;;
68923;SDS011;55961;52.156;20.942;2022-08-07T00:35:33;4.20;;;1.43;;
68923;SDS011;55961;52.156;20.942;2022-08-07T00:38:00;5.47;;;1.92;;
68923;SDS011;55961;52.156;20.942;2022-08-07T00:40:26;4.82;;;1.48;;
68923;SDS011;55961;52.156;20.942;2022-08-07T00:42:54;3.97;;;1.40;;
68923;SDS011;55961;52.156;20.942;2022-08-07T00:45:20;6.78;;;1.70;;
68923;SDS011;55961;52.156;20.942;2022-08-07T00:47:47;5.22;;;2.10;;
68923;SDS011;55961;52.156;20.942;2022-08-07T00:50:14;5.43;;;1.75;;
68923;SDS011;55961;52.156;20.942;2022-08-07T00:52:41;5.28;;;1.10;;
68923;SDS011;55961;52.156;20.942;2022-08-07T00:55:07;7.57;;;1.33;;
68923;SDS011;55961;52.156;20.942;2022-08-07T00:57:33;4.50;;;1.08;;
68923;SDS011;55961;52.156;20.942;2022-08-07T01:00:00;6.78;;;1.45;;
68923;SDS011;55961;52.156;20.942;2022-08-07T01:02:30;5.50;;;1.35;;
68923;SDS011;55961;52.156;20.942;2022-08-07T01:04:56;5.90;;;1.52;;
68923;SDS011;55961;52.156;20.942;2022-08-07T01:07:24;3.60;;;1.00;;
68923;SDS011;55961;52.156;20.942;2022-08-07T01:09:51;4.03;;;1.23;;
68923;SDS011;55961;52.156;20.942;2022-08-07T01:12:16;5.20;;;1.35;;
68923;SDS011;55961;52.156;20.942;2022-08-07T01:14:43;6.28;;;1.00;;
68923;SDS011;55961;52.156;20.942;2022-08-07T01:17:09;6.53;;;1.50;;
68923;SDS011;55961;52.156;20.942;2022-08-07T01:19:35;5.70;;;1.30;;
68923;SDS011;55961;52.156;20.942;2022-08-07T01:22:02;5.03;;;1.75;;
68923;SDS011;55961;52.156;20.942;2022-08-07T01:24:29;4.90;;;1.63;;
68923;SDS011;55961;52.156;20.942;2022-08-07T01:26:55;4.10;;;1.60;;
68923;SDS011;55961;52.156;20.942;2022-08-07T01:29:22;4.80;;;1.30;;
68923;SDS011;55961;52.156;20.942;2022-08-07T01:31:49;5.35;;;1.55;;
68923;SDS011;55961;52.156;20.942;2022-08-07T01:34:15;5.45;;;1.67;;
68923;SDS011;55961;52.156;20.942;2022-08-07T01:36:45;4.25;;;1.50;;
68923;SDS011;55961;52.156;20.942;2022-08-07T01:39:12;5.05;;;1.73;;
68923;SDS011;55961;52.156;20.942;2022-08-07T01:41:38;4.53;;;1.50;;
68923;SDS011;55961;52.156;20.942;2022-08-07T01:44:05;4.72;;;1.30;;
68923;SDS011;55961;52.156;20.942;2022-08-07T01:46:31;4.68;;;1.65;;
68923;SDS011;55961;52.156;20.942;2022-08-07T01:48:57;3.97;;;1.63;;
68923;SDS011;55961;52.156;20.942;2022-08-07T01:51:23;6.47;;;1.97;;
68923;SDS011;55961;52.156;20.942;2022-08-07T01:53:55;5.38;;;1.90;;
68923;SDS011;55961;52.156;20.942;2022-08-07T01:56:25;5.63;;;1.60;;
68923;SDS011;55961;52.156;20.942;2022-08-07T01:58:57;5.28;;;1.65;;
68923;SDS011;55961;52.156;20.942;2022-08-07T02:01:30;4.60;;;1.50;;
68923;SDS011;55961;52.156;20.942;2022-08-07T02:04:12;5.57;;;1.57;;
68923;SDS011;55961;52.156;20.942;2022-08-07T02:06:42;6.85;;;1.80;;
68923;SDS011;55961;52.156;20.942;2022-08-07T02:09:10;6.25;;;1.67;;
68923;SDS011;55961;52.156;20.942;2022-08-07T02:11:41;4.18;;;1.45;;
68923;SDS011;55961;52.156;20.942;2022-08-07T02:14:10;5.72;;;1.90;;
68923;SDS011;55961;52.156;20.942;2022-08-07T02:16:37;7.33;;;1.73;;
68923;SDS011;55961;52.156;20.942;2022-08-07T02:19:05;4.50;;;1.70;;
68923;SDS011;55961;52.156;20.942;2022-08-07T02:21:34;5.18;;;1.27;;
68923;SDS011;55961;52.156;20.942;2022-08-07T02:24:03;9.65;;;1.90;;
68923;SDS011;55961;52.156;20.942;2022-08-07T02:26:30;6.13;;;1.90;;
68923;SDS011;55961;52.156;20.942;2022-08-07T02:28:58;4.63;;;1.57;;
68923;SDS011;55961;52.156;20.942;2022-08-07T02:31:26;6.68;;;2.15;;
68923;SDS011;55961;52.156;20.942;2022-08-07T02:33:52;5.22;;;1.80;;
68923;SDS011;55961;52.156;20.942;2022-08-07T02:36:21;5.57;;;1.88;;
68923;SDS011;55961;52.156;20.942;2022-08-07T02:38:47;4.60;;;1.92;;
68923;SDS011;55961;52.156;20.942;2022-08-07T02:41:15;6.63;;;2.30;;
68923;SDS011;55961;52.156;20.942;2022-08-07T02:43:42;6.55;;;1.98;;
68923;SDS011;55961;52.156;20.942;2022-08-07T02:46:09;5.68;;;2.20;;
68923;SDS011;55961;52.156;20.942;2022-08-07T02:48:37;4.75;;;1.70;;
68923;SDS011;55961;52.156;20.942;2022-08-07T02:51:07;4.82;;;1.92;;
68923;SDS011;55961;52.156;20.942;2022-08-07T02:53:37;6.60;;;1.87;;
68923;SDS011;55961;52.156;20.942;2022-08-07T02:56:05;4.68;;;1.85;;
68923;SDS011;55961;52.156;20.942;2022-08-07T02:58:33;3.95;;;1.77;;
68923;SDS011;55961;52.156;20.942;2022-08-07T03:01:00;6.10;;;2.72;;
68923;SDS011;55961;52.156;20.942;2022-08-07T03:03:29;5.93;;;2.45;;
68923;SDS011;55961;52.156;20.942;2022-08-07T03:05:57;5.93;;;2.20;;
68923;SDS011;55961;52.156;20.942;2022-08-07T03:08:24;4.57;;;2.00;;
68923;SDS011;55961;52.156;20.942;2022-08-07T03:10:50;4.10;;;2.00;;
68923;SDS011;55961;52.156;20.942;2022-08-07T03:13:17;7.95;;;2.55;;
68923;SDS011;55961;52.156;20.942;2022-08-07T03:15:43;6.43;;;2.60;;
68923;SDS011;55961;52.156;20.942;2022-08-07T03:18:10;6.27;;;2.17;;
68923;SDS011;55961;52.156;20.942;2022-08-07T03:20:37;5.53;;;2.10;;
68923;SDS011;55961;52.156;20.942;2022-08-07T03:23:04;6.82;;;2.30;;
68923;SDS011;55961;52.156;20.942;2022-08-07T03:25:33;6.75;;;2.40;;
68923;SDS011;55961;52.156;20.942;2022-08-07T03:28:01;6.13;;;2.47;;
68923;SDS011;55961;52.156;20.942;2022-08-07T03:30:30;5.20;;;2.37;;
68923;SDS011;55961;52.156;20.942;2022-08-07T03:32:58;4.78;;;2.20;;
68923;SDS011;55961;52.156;20.942;2022-08-07T03:35:26;5.82;;;2.20;;
68923;SDS011;55961;52.156;20.942;2022-08-07T03:37:57;5.82;;;2.28;;
68923;SDS011;55961;52.156;20.942;2022-08-07T03:40:26;4.97;;;2.00;;
68923;SDS011;55961;52.156;20.942;2022-08-07T03:42:53;7.73;;;2.80;;
68923;SDS011;55961;52.156;20.942;2022-08-07T03:45:21;9.00;;;2.35;;
68923;SDS011;55961;52.156;20.942;2022-08-07T03:47:49;6.45;;;2.38;;
68923;SDS011;55961;52.156;20.942;2022-08-07T03:50:16;8.07;;;2.55;;
68923;SDS011;55961;52.156;20.942;2022-08-07T03:52:44;6.97;;;2.50;;
68923;SDS011;55961;52.156;20.942;2022-08-07T03:55:12;8.73;;;3.83;;
68923;SDS011;55961;52.156;20.942;2022-08-07T03:57:38;8.85;;;3.30;;
68923;SDS011;55961;52.156;20.942;2022-08-07T04:00:06;6.70;;;2.85;;
68923;SDS011;55961;52.156;20.942;2022-08-07T04:02:33;7.43;;;2.85;;
68923;SDS011;55961;52.156;20.942;2022-08-07T04:04:59;5.93;;;2.88;;
68923;SDS011;55961;52.156;20.942;2022-08-07T04:07:25;9.73;;;3.57;;
68923;SDS011;55961;52.156;20.942;2022-08-07T04:09:51;10.52;;;3.42;;
68923;SDS011;55961;52.156;20.942;2022-08-07T04:12:17;6.22;;;3.10;;
68923;SDS011;55961;52.156;20.942;2022-08-07T04:14:44;7.18;;;2.60;;
68923;SDS011;55961;52.156;20.942;2022-08-07T04:17:10;8.60;;;2.63;;
68923;SDS011;55961;52.156;20.942;2022-08-07T04:19:39;8.93;;;4.43;;
68923;SDS011;55961;52.156;20.942;2022-08-07T04:22:06;7.40;;;3.05;;
68923;SDS011;55961;52.156;20.942;2022-08-07T04:24:32;8.15;;;3.47;;
68923;SDS011;55961;52.156;20.942;2022-08-07T04:26:59;7.10;;;3.08;;
68923;SDS011;55961;52.156;20.942;2022-08-07T04:29:27;15.60;;;3.80;;
68923;SDS011;55961;52.156;20.942;2022-08-07T04:31:53;7.82;;;3.00;;
68923;SDS011;55961;52.156;20.942;2022-08-07T04:34:22;7.63;;;2.78;;
68923;SDS011;55961;52.156;20.942;2022-08-07T04:36:48;8.13;;;3.30;;
68923;SDS011;55961;52.156;20.942;2022-08-07T04:39:14;7.40;;;2.40;;
68923;SDS011;55961;52.156;20.942;2022-08-07T04:41:41;5.88;;;2.40;;
68923;SDS011;55961;52.156;20.942;2022-08-07T04:44:07;10.30;;;2.75;;
68923;SDS011;55961;52.156;20.942;2022-08-07T04:52:03;7.00;;;2.80;;
68923;SDS011;55961;52.156;20.942;2022-08-07T05:02:26;6.75;;;2.75;;
68923;SDS011;55961;52.156;20.942;2022-08-07T05:05:14;6.43;;;2.50;;
68923;SDS011;55961;52.156;20.942;2022-08-07T05:07:52;6.78;;;2.40;;
68923;SDS011;55961;52.156;20.942;2022-08-07T05:10:22;9.68;;;2.15;;
68923;SDS011;55961;52.156;20.942;2022-08-07T05:13:10;5.47;;;1.85;;
68923;SDS011;55961;52.156;20.942;2022-08-07T05:15:52;4.80;;;1.80;;
68923;SDS011;55961;52.156;20.942;2022-08-07T05:20:58;5.75;;;1.58;;
68923;SDS011;55961;52.156;20.942;2022-08-07T05:23:44;6.20;;;2.03;;
68923;SDS011;55961;52.156;20.942;2022-08-07T05:26:32;7.97;;;2.00;;
68923;SDS011;55961;52.156;20.942;2022-08-07T05:29:00;10.70;;;2.33;;
68923;SDS011;55961;52.156;20.942;2022-08-07T05:31:29;4.23;;;1.60;;
68923;SDS011;55961;52.156;20.942;2022-08-07T05:33:58;4.68;;;1.38;;
68923;SDS011;55961;52.156;20.942;2022-08-07T05:36:24;6.05;;;1.98;;
68923;SDS011;55961;52.156;20.942;2022-08-07T05:38:52;4.93;;;1.00;;
68923;SDS011;55961;52.156;20.942;2022-08-07T05:41:20;4.53;;;1.25;;
68923;SDS011;55961;52.156;20.942;2022-08-07T05:43:48;5.27;;;1.13;;
68923;SDS011;55961;52.156;20.942;2022-08-07T05:46:16;7.38;;;1.45;;
68923;SDS011;55961;52.156;20.942;2022-08-07T05:48:44;5.30;;;1.40;;
68923;SDS011;55961;52.156;20.942;2022-08-07T05:51:10;3.20;;;1.00;;
68923;SDS011;55961;52.156;20.942;2022-08-07T05:53:38;5.45;;;1.38;;
68923;SDS011;55961;52.156;20.942;2022-08-07T05:56:04;4.17;;;1.33;;
68923;SDS011;55961;52.156;20.942;2022-08-07T05:58:32;5.30;;;1.20;;
68923;SDS011;55961;52.156;20.942;2022-08-07T06:01:00;5.15;;;1.20;;
68923;SDS011;55961;52.156;20.942;2022-08-07T06:03:27;5.03;;;1.40;;
68923;SDS011;55961;52.156;20.942;2022-08-07T06:05:55;8.90;;;1.70;;
68923;SDS011;55961;52.156;20.942;2022-08-07T06:08:22;7.17;;;2.10;;
68923;SDS011;55961;52.156;20.942;2022-08-07T06:10:49;6.07;;;1.30;;
68923;SDS011;55961;52.156;20.942;2022-08-07T06:13:15;5.93;;;1.08;;
68923;SDS011;55961;52.156;20.942;2022-08-07T06:15:42;4.43;;;0.93;;
68923;SDS011;55961;52.156;20.942;2022-08-07T06:18:13;4.68;;;0.95;;
68923;SDS011;55961;52.156;20.942;2022-08-07T06:20:40;4.93;;;1.43;;
68923;SDS011;55961;52.156;20.942;2022-08-07T06:23:08;10.13;;;1.48;;
68923;SDS011;55961;52.156;20.942;2022-08-07T06:25:35;4.88;;;0.80;;
68923;SDS011;55961;52.156;20.942;2022-08-07T06:28:04;4.50;;;0.50;;
68923;SDS011;55961;52.156;20.942;2022-08-07T06:30:32;6.55;;;1.00;;
68923;SDS011;55961;52.156;20.942;2022-08-07T06:33:02;5.17;;;1.23;;
68923;SDS011;55961;52.156;20.942;2022-08-07T06:35:30;4.38;;;1.10;;
68923;SDS011;55961;52.156;20.942;2022-08-07T06:37:58;6.20;;;1.05;;
68923;SDS011;55961;52.156;20.942;2022-08-07T06:40:24;6.70;;;1.40;;
68923;SDS011;55961;52.156;20.942;2022-08-07T06:42:53;5.00;;;1.00;;
68923;SDS011;55961;52.156;20.942;2022-08-07T06:45:21;3.83;;;0.80;;
68923;SDS011;55961;52.156;20.942;2022-08-07T06:47:49;3.33;;;0.70;;
68923;SDS011;55961;52.156;20.942;2022-08-07T06:50:15;7.22;;;0.90;;
68923;SDS011;55961;52.156;20.942;2022-08-07T06:52:42;3.95;;;0.73;;
68923;SDS011;55961;52.156;20.942;2022-08-07T06:55:24;3.03;;;0.60;;
68923;SDS011;55961;52.156;20.942;2022-08-07T06:57:54;2.90;;;0.53;;
68923;SDS011;55961;52.156;20.942;2022-08-07T07:00:23;8.43;;;1.10;;
68923;SDS011;55961;52.156;20.942;2022-08-07T07:02:51;5.65;;;1.08;;
68923;SDS011;55961;52.156;20.942;2022-08-07T07:05:19;5.88;;;1.05;;
68923;SDS011;55961;52.156;20.942;2022-08-07T07:07:45;5.32;;;1.42;;
68923;SDS011;55961;52.156;20.942;2022-08-07T07:10:12;6.90;;;1.20;;
68923;SDS011;55961;52.156;20.942;2022-08-07T07:12:39;5.05;;;0.75;;
68923;SDS011;55961;52.156;20.942;2022-08-07T07:17:47;4.75;;;0.80;;
68923;SDS011;55961;52.156;20.942;2022-08-07T07:20:18;5.20;;;1.63;;
68923;SDS011;55961;52.156;20.942;2022-08-07T07:22:47;4.32;;;0.82;;
68923;SDS011;55961;52.156;20.942;2022-08-07T07:25:14;4.25;;;0.80;;
68923;SDS011;55961;52.156;20.942;2022-08-07T07:30:30;4.60;;;0.60;;
68923;SDS011;55961;52.156;20.942;2022-08-07T07:33:00;3.63;;;1.20;;
68923;SDS011;55961;52.156;20.942;2022-08-07T07:35:27;3.60;;;0.55;;
68923;SDS011;55961;52.156;20.942;2022-08-07T07:37:55;4.25;;;1.00;;
68923;SDS011;55961;52.156;20.942;2022-08-07T07:40:24;4.95;;;1.00;;
68923;SDS011;55961;52.156;20.942;2022-08-07T07:42:52;3.25;;;1.05;;
68923;SDS011;55961;52.156;20.942;2022-08-07T07:45:20;4.30;;;0.77;;
68923;SDS011;55961;52.156;20.942;2022-08-07T07:47:49;2.75;;;1.02;;
68923;SDS011;55961;52.156;20.942;2022-08-07T07:50:17;5.57;;;1.42;;
68923;SDS011;55961;52.156;20.942;2022-08-07T07:52:46;6.32;;;1.20;;
68923;SDS011;55961;52.156;20.942;2022-08-07T07:55:12;5.18;;;0.75;;
68923;SDS011;55961;52.156;20.942;2022-08-07T07:57:41;3.67;;;1.03;;
68923;SDS011;55961;52.156;20.942;2022-08-07T08:00:08;3.55;;;1.20;;
68923;SDS011;55961;52.156;20.942;2022-08-07T08:02:36;2.95;;;0.88;;
68923;SDS011;55961;52.156;20.942;2022-08-07T08:05:04;5.32;;;0.82;;
68923;SDS011;55961;52.156;20.942;2022-08-07T08:07:31;4.50;;;0.60;;
68923;SDS011;55961;52.156;20.942;2022-08-07T08:09:59;3.97;;;0.83;;
68923;SDS011;55961;52.156;20.942;2022-08-07T08:12:27;3.40;;;0.80;;
68923;SDS011;55961;52.156;20.942;2022-08-07T08:14:54;3.05;;;0.77;;
68923;SDS011;55961;52.156;20.942;2022-08-07T08:17:20;4.20;;;0.73;;
68923;SDS011;55961;52.156;20.942;2022-08-07T08:19:47;5.20;;;1.00;;
68923;SDS011;55961;52.156;20.942;2022-08-07T08:22:17;3.23;;;0.70;;
68923;SDS011;55961;52.156;20.942;2022-08-07T08:25:04;3.13;;;0.70;;
68923;SDS011;55961;52.156;20.942;2022-08-07T08:27:52;2.97;;;1.25;;
68923;SDS011;55961;52.156;20.942;2022-08-07T08:30:19;3.22;;;0.65;;
68923;SDS011;55961;52.156;20.942;2022-08-07T08:32:47;3.20;;;0.80;;
68923;SDS011;55961;52.156;20.942;2022-08-07T08:35:22;5.67;;;0.80;;
68923;SDS011;55961;52.156;20.942;2022-08-07T08:37:50;4.15;;;0.85;;
68923;SDS011;55961;52.156;20.942;2022-08-07T08:40:23;4.93;;;1.13;;
68923;SDS011;55961;52.156;20.942;2022-08-07T08:43:00;5.10;;;0.90;;
68923;SDS011;55961;52.156;20.942;2022-08-07T08:45:51;3.58;;;0.80;;
68923;SDS011;55961;52.156;20.942;2022-08-07T08:48:33;3.40;;;0.70;;
68923;SDS011;55961;52.156;20.942;2022-08-07T08:54:09;3.22;;;0.80;;
68923;SDS011;55961;52.156;20.942;2022-08-07T08:56:43;3.58;;;0.90;;
68923;SDS011;55961;52.156;20.942;2022-08-07T08:59:29;2.30;;;0.70;;
68923;SDS011;55961;52.156;20.942;2022-08-07T09:23:55;2.92;;;0.60;;
68923;SDS011;55961;52.156;20.942;2022-08-07T09:26:51;4.72;;;1.02;;
68923;SDS011;55961;52.156;20.942;2022-08-07T09:35:02;2.67;;;0.80;;
68923;SDS011;55961;52.156;20.942;2022-08-07T09:37:41;3.40;;;1.00;;
68923;SDS011;55961;52.156;20.942;2022-08-07T09:50:51;2.90;;;0.93;;
68923;SDS011;55961;52.156;20.942;2022-08-07T09:53:35;3.40;;;1.10;;
68923;SDS011;55961;52.156;20.942;2022-08-07T10:04:08;2.80;;;0.95;;
68923;SDS011;55961;52.156;20.942;2022-08-07T10:07:01;4.87;;;1.10;;
68923;SDS011;55961;52.156;20.942;2022-08-07T10:20:44;2.43;;;0.90;;
68923;SDS011;55961;52.156;20.942;2022-08-07T10:29:36;3.92;;;1.13;;
68923;SDS011;55961;52.156;20.942;2022-08-07T10:43:48;4.55;;;1.25;;
68923;SDS011;55961;52.156;20.942;2022-08-07T10:46:23;2.95;;;1.10;;
68923;SDS011;55961;52.156;20.942;2022-08-07T10:48:56;2.57;;;1.07;;
68923;SDS011;55961;52.156;20.942;2022-08-07T10:51:36;4.65;;;1.20;;
68923;SDS011;55961;52.156;20.942;2022-08-07T10:54:05;3.83;;;1.15;;
68923;SDS011;55961;52.156;20.942;2022-08-07T11:02:15;4.00;;;1.07;;
68923;SDS011;55961;52.156;20.942;2022-08-07T11:16:05;2.93;;;1.00;;
68923;SDS011;55961;52.156;20.942;2022-08-07T11:18:55;2.67;;;1.10;;
68923;SDS011;55961;52.156;20.942;2022-08-07T11:24:09;2.20;;;1.00;;
68923;SDS011;55961;52.156;20.942;2022-08-07T11:26:50;2.72;;;0.77;;
68923;SDS011;55961;52.156;20.942;2022-08-07T11:32:10;3.28;;;1.08;;
68923;SDS011;55961;52.156;20.942;2022-08-07T11:34:50;2.45;;;0.90;;
68923;SDS011;55961;52.156;20.942;2022-08-07T11:39:53;2.70;;;1.02;;
68923;SDS011;55961;52.156;20.942;2022-08-07T11:42:58;4.67;;;0.97;;
68923;SDS011;55961;52.156;20.942;2022-08-07T11:45:40;2.95;;;0.90;;
68923;SDS011;55961;52.156;20.942;2022-08-07T12:02:01;3.58;;;0.90;;
68923;SDS011;55961;52.156;20.942;2022-08-07T12:08:13;3.30;;;1.00;;
68923;SDS011;55961;52.156;20.942;2022-08-07T12:10:37;3.07;;;1.00;;
68923;SDS011;55961;52.156;20.942;2022-08-07T12:16:07;3.45;;;1.02;;
68923;SDS011;55961;52.156;20.942;2022-08-07T12:24:13;2.43;;;1.00;;
68923;SDS011;55961;52.156;20.942;2022-08-07T12:29:50;2.97;;;1.02;;
68923;SDS011;55961;52.156;20.942;2022-08-07T12:32:41;2.53;;;1.30;;
68923;SDS011;55961;52.156;20.942;2022-08-07T12:35:14;2.67;;;0.93;;
68923;SDS011;55961;52.156;20.942;2022-08-07T12:37:42;2.93;;;0.93;;
68923;SDS011;55961;52.156;20.942;2022-08-07T12:40:15;1.98;;;0.88;;
68923;SDS011;55961;52.156;20.942;2022-08-07T12:42:50;6.72;;;2.58;;
68923;SDS011;55961;52.156;20.942;2022-08-07T12:45:21;3.63;;;0.93;;
68923;SDS011;55961;52.156;20.942;2022-08-07T12:48:07;3.95;;;1.13;;
68923;SDS011;55961;52.156;20.942;2022-08-07T12:50:49;2.03;;;0.90;;
68923;SDS011;55961;52.156;20.942;2022-08-07T12:53:34;3.47;;;0.80;;
68923;SDS011;55961;52.156;20.942;2022-08-07T12:56:22;2.70;;;1.08;;
68923;SDS011;55961;52.156;20.942;2022-08-07T12:58:53;2.88;;;1.00;;
68923;SDS011;55961;52.156;20.942;2022-08-07T13:06:37;2.83;;;0.70;;
68923;SDS011;55961;52.156;20.942;2022-08-07T13:09:45;3.05;;;1.00;;
68923;SDS011;55961;52.156;20.942;2022-08-07T13:20:18;1.98;;;0.80;;
68923;SDS011;55961;52.156;20.942;2022-08-07T13:22:51;5.45;;;1.17;;
68923;SDS011;55961;52.156;20.942;2022-08-07T13:25:47;5.35;;;1.17;;
68923;SDS011;55961;52.156;20.942;2022-08-07T13:28:20;1.95;;;0.63;;
68923;SDS011;55961;52.156;20.942;2022-08-07T13:31:05;1.97;;;0.70;;
68923;SDS011;55961;52.156;20.942;2022-08-07T13:33:37;1.90;;;0.73;;
68923;SDS011;55961;52.156;20.942;2022-08-07T13:36:31;2.88;;;0.80;;
68923;SDS011;55961;52.156;20.942;2022-08-07T13:39:08;3.08;;;0.80;;
68923;SDS011;55961;52.156;20.942;2022-08-07T13:44:06;3.37;;;0.97;;
68923;SDS011;55961;52.156;20.942;2022-08-07T13:46:35;2.65;;;0.82;;
68923;SDS011;55961;52.156;20.942;2022-08-07T13:49:06;3.65;;;0.90;;
68923;SDS011;55961;52.156;20.942;2022-08-07T13:51:35;3.25;;;0.90;;
68923;SDS011;55961;52.156;20.942;2022-08-07T13:54:07;2.35;;;0.90;;
68923;SDS011;55961;52.156;20.942;2022-08-07T13:56:36;2.67;;;0.70;;
68923;SDS011;55961;52.156;20.942;2022-08-07T13:59:12;3.47;;;1.00;;
68923;SDS011;55961;52.156;20.942;2022-08-07T14:01:48;1.80;;;0.80;;
68923;SDS011;55961;52.156;20.942;2022-08-07T14:04:17;3.90;;;1.10;;
68923;SDS011;55961;52.156;20.942;2022-08-07T14:06:45;3.20;;;0.98;;
68923;SDS011;55961;52.156;20.942;2022-08-07T14:09:23;2.80;;;0.70;;
68923;SDS011;55961;52.156;20.942;2022-08-07T14:12:00;2.53;;;1.00;;
68923;SDS011;55961;52.156;20.942;2022-08-07T14:14:41;2.03;;;0.80;;
68923;SDS011;55961;52.156;20.942;2022-08-07T14:17:10;2.20;;;0.90;;
68923;SDS011;55961;52.156;20.942;2022-08-07T14:19:48;2.88;;;1.20;;
68923;SDS011;55961;52.156;20.942;2022-08-07T14:22:21;3.07;;;0.93;;
68923;SDS011;55961;52.156;20.942;2022-08-07T14:24:53;2.58;;;0.80;;
68923;SDS011;55961;52.156;20.942;2022-08-07T14:27:35;2.58;;;1.08;;
68923;SDS011;55961;52.156;20.942;2022-08-07T14:30:06;2.88;;;0.90;;
68923;SDS011;55961;52.156;20.942;2022-08-07T14:32:44;5.00;;;1.10;;
68923;SDS011;55961;52.156;20.942;2022-08-07T14:35:15;2.23;;;0.80;;
68923;SDS011;55961;52.156;20.942;2022-08-07T14:37:45;2.80;;;0.90;;
68923;SDS011;55961;52.156;20.942;2022-08-07T14:40:15;3.03;;;0.82;;
68923;SDS011;55961;52.156;20.942;2022-08-07T14:42:42;3.40;;;0.70;;
68923;SDS011;55961;52.156;20.942;2022-08-07T14:45:10;3.05;;;1.10;;
68923;SDS011;55961;52.156;20.942;2022-08-07T14:47:38;3.47;;;0.90;;
68923;SDS011;55961;52.156;20.942;2022-08-07T14:50:06;2.30;;;0.90;;
68923;SDS011;55961;52.156;20.942;2022-08-07T14:52:34;3.70;;;0.85;;
68923;SDS011;55961;52.156;20.942;2022-08-07T14:55:02;2.13;;;0.50;;
68923;SDS011;55961;52.156;20.942;2022-08-07T14:57:30;2.75;;;0.80;;
68923;SDS011;55961;52.156;20.942;2022-08-07T14:59:58;3.00;;;0.80;;
68923;SDS011;55961;52.156;20.942;2022-08-07T15:02:26;2.42;;;0.80;;
68923;SDS011;55961;52.156;20.942;2022-08-07T15:04:53;2.60;;;0.70;;
68923;SDS011;55961;52.156;20.942;2022-08-07T15:07:21;2.50;;;1.08;;
68923;SDS011;55961;52.156;20.942;2022-08-07T15:09:51;4.85;;;0.80;;
68923;SDS011;55961;52.156;20.942;2022-08-07T15:12:21;2.80;;;0.77;;
68923;SDS011;55961;52.156;20.942;2022-08-07T15:14:50;2.38;;;0.70;;
68923;SDS011;55961;52.156;20.942;2022-08-07T15:17:20;2.13;;;0.93;;
68923;SDS011;55961;52.156;20.942;2022-08-07T15:19:57;2.10;;;0.90;;
68923;SDS011;55961;52.156;20.942;2022-08-07T15:22:30;2.42;;;1.13;;
68923;SDS011;55961;52.156;20.942;2022-08-07T15:25:12;3.53;;;1.00;;
68923;SDS011;55961;52.156;20.942;2022-08-07T15:27:40;3.33;;;0.82;;
68923;SDS011;55961;52.156;20.942;2022-08-07T15:30:08;8.00;;;1.20;;
68923;SDS011;55961;52.156;20.942;2022-08-07T15:32:39;2.67;;;1.08;;
68923;SDS011;55961;52.156;20.942;2022-08-07T15:35:11;2.65;;;0.80;;
68923;SDS011;55961;52.156;20.942;2022-08-07T15:37:47;2.63;;;0.90;;
68923;SDS011;55961;52.156;20.942;2022-08-07T15:40:17;2.97;;;1.10;;
68923;SDS011;55961;52.156;20.942;2022-08-07T15:45:15;4.07;;;1.20;;
68923;SDS011;55961;52.156;20.942;2022-08-07T15:47:53;4.10;;;0.98;;
68923;SDS011;55961;52.156;20.942;2022-08-07T15:50:31;3.47;;;1.60;;
68923;SDS011;55961;52.156;20.942;2022-08-07T15:53:03;4.03;;;1.10;;
68923;SDS011;55961;52.156;20.942;2022-08-07T15:55:42;3.85;;;1.10;;
68923;SDS011;55961;52.156;20.942;2022-08-07T15:58:12;3.80;;;0.93;;
68923;SDS011;55961;52.156;20.942;2022-08-07T16:00:41;3.45;;;1.27;;
68923;SDS011;55961;52.156;20.942;2022-08-07T16:03:12;2.07;;;0.90;;
68923;SDS011;55961;52.156;20.942;2022-08-07T16:05:45;2.72;;;0.82;;
68923;SDS011;55961;52.156;20.942;2022-08-07T16:08:18;3.30;;;0.93;;
68923;SDS011;55961;52.156;20.942;2022-08-07T16:10:56;4.97;;;1.50;;
68923;SDS011;55961;52.156;20.942;2022-08-07T16:13:37;3.30;;;1.20;;
68923;SDS011;55961;52.156;20.942;2022-08-07T16:16:25;3.30;;;1.20;;
68923;SDS011;55961;52.156;20.942;2022-08-07T16:22:01;3.85;;;1.80;;
68923;SDS011;55961;52.156;20.942;2022-08-07T16:24:42;4.10;;;1.55;;
68923;SDS011;55961;52.156;20.942;2022-08-07T16:35:37;4.43;;;1.30;;
68923;SDS011;55961;52.156;20.942;2022-08-07T16:41:14;3.63;;;0.90;;
68923;SDS011;55961;52.156;20.942;2022-08-07T17:00:25;12.93;;;9.23;;
68923;SDS011;55961;52.156;20.942;2022-08-07T17:03:17;5.85;;;2.45;;
68923;SDS011;55961;52.156;20.942;2022-08-07T17:05:44;3.35;;;1.17;;
68923;SDS011;55961;52.156;20.942;2022-08-07T17:08:40;3.97;;;1.40;;
68923;SDS011;55961;52.156;20.942;2022-08-07T17:11:12;9.30;;;3.27;;
68923;SDS011;55961;52.156;20.942;2022-08-07T17:16:46;3.50;;;1.77;;
68923;SDS011;55961;52.156;20.942;2022-08-07T17:19:32;4.35;;;1.77;;
68923;SDS011;55961;52.156;20.942;2022-08-07T17:22:09;4.60;;;1.98;;
68923;SDS011;55961;52.156;20.942;2022-08-07T17:27:49;3.38;;;1.05;;
68923;SDS011;55961;52.156;20.942;2022-08-07T17:30:23;4.70;;;1.35;;
68923;SDS011;55961;52.156;20.942;2022-08-07T17:32:57;8.68;;;3.40;;
68923;SDS011;55961;52.156;20.942;2022-08-07T17:36:02;10.30;;;6.00;;
68923;SDS011;55961;52.156;20.942;2022-08-07T17:39:03;19.93;;;13.67;;
68923;SDS011;55961;52.156;20.942;2022-08-07T17:42:03;9.32;;;4.63;;
68923;SDS011;55961;52.156;20.942;2022-08-07T17:44:46;6.63;;;4.07;;
68923;SDS011;55961;52.156;20.942;2022-08-07T17:53:11;20.43;;;10.97;;
68923;SDS011;55961;52.156;20.942;2022-08-07T17:55:54;18.05;;;9.25;;
68923;SDS011;55961;52.156;20.942;2022-08-07T17:58:29;9.77;;;4.55;;
68923;SDS011;55961;52.156;20.942;2022-08-07T18:01:18;9.05;;;3.97;;
68923;SDS011;55961;52.156;20.942;2022-08-07T18:09:27;176.77;;;77.78;;
68923;SDS011;55961;52.156;20.942;2022-08-07T18:12:05;117.72;;;55.88;;
68923;SDS011;55961;52.156;20.942;2022-08-07T18:14:45;42.17;;;19.33;;
68923;SDS011;55961;52.156;20.942;2022-08-07T18:20:25;46.00;;;23.23;;
68923;SDS011;55961;52.156;20.942;2022-08-07T18:22:54;67.82;;;36.83;;
68923;SDS011;55961;52.156;20.942;2022-08-07T18:25:26;51.90;;;28.98;;
68923;SDS011;55961;52.156;20.942;2022-08-07T18:30:38;34.28;;;19.10;;
68923;SDS011;55961;52.156;20.942;2022-08-07T18:44:28;16.05;;;10.00;;
68923;SDS011;55961;52.156;20.942;2022-08-07T18:47:10;14.67;;;7.20;;
68923;SDS011;55961;52.156;20.942;2022-08-07T18:50:03;14.82;;;6.82;;
68923;SDS011;55961;52.156;20.942;2022-08-07T18:55:50;5.75;;;2.50;;
68923;SDS011;55961;52.156;20.942;2022-08-07T18:58:28;8.60;;;2.63;;
68923;SDS011;55961;52.156;20.942;2022-08-07T19:06:35;5.90;;;2.30;;